sensor_id;sensor_type;location;lat;lon;timestamp;P1;durP1;ratioP1;P2;durP2;ratioP2
8654;SDS011;13500;52.514;13.462;2024-03-02T00:00:50;45.70;;;35.23;;
8654;SDS011;13500;52.514;13.462;2024-03-02T00:03:19;47.47;;;36.03;;
8654;SDS011;13500;52.514;13.462;2024-03-02T00:05:49;46.43;;;36.47;;
8654;SDS011;13500;52.514;13.462;2024-03-02T00:08:24;46.10;;;35.03;;
8654;SDS011;13500;52.514;13.462;2024-03-02T00:10:57;46.93;;;35.30;;
8654;SDS011;13500;52.514;13.462;2024-03-02T00:13:26;48.87;;;35.47;;
8654;SDS011;13500;52.514;13.462;2024-03-02T00:15:58;46.97;;;35.30;;
8654;SDS011;13500;52.514;13.462;2024-03-02T00:18:29;49.13;;;37.07;;
8654;SDS011;13500;52.514;13.462;2024-03-02T00:20:58;48.90;;;37.07;;
8654;SDS011;13500;52.514;13.462;2024-03-02T00:23:29;48.93;;;36.50;;
8654;SDS011;13500;52.514;13.462;2024-03-02T00:25:58;52.47;;;37.83;;
8654;SDS011;13500;52.514;13.462;2024-03-02T00:28:27;45.90;;;35.97;;
8654;SDS011;13500;52.514;13.462;2024-03-02T00:31:02;46.97;;;36.30;;
8654;SDS011;13500;52.514;13.462;2024-03-02T00:33:32;47.80;;;35.93;;
8654;SDS011;13500;52.514;13.462;2024-03-02T00:36:02;52.23;;;39.87;;
8654;SDS011;13500;52.514;13.462;2024-03-02T00:38:33;53.20;;;40.07;;
8654;SDS011;13500;52.514;13.462;2024-03-02T00:41:04;56.23;;;39.10;;
8654;SDS011;13500;52.514;13.462;2024-03-02T00:43:42;50.47;;;39.07;;
8654;SDS011;13500;52.514;13.462;2024-03-02T00:46:15;56.93;;;39.10;;
8654;SDS011;13500;52.514;13.462;2024-03-02T00:48:47;52.20;;;39.43;;
8654;SDS011;13500;52.514;13.462;2024-03-02T00:51:22;53.13;;;40.13;;
8654;SDS011;13500;52.514;13.462;2024-03-02T00:53:54;52.97;;;38.57;;
8654;SDS011;13500;52.514;13.462;2024-03-02T00:56:26;52.17;;;39.67;;
8654;SDS011;13500;52.514;13.462;2024-03-02T00:58:54;54.47;;;40.27;;
8654;SDS011;13500;52.514;13.462;2024-03-02T01:01:22;55.37;;;41.83;;
8654;SDS011;13500;52.514;13.462;2024-03-02T01:03:50;58.87;;;41.37;;
8654;SDS011;13500;52.514;13.462;2024-03-02T01:06:19;48.57;;;38.50;;
8654;SDS011;13500;52.514;13.462;2024-03-02T01:08:49;54.87;;;39.57;;
8654;SDS011;13500;52.514;13.462;2024-03-02T01:11:20;52.37;;;38.63;;
8654;SDS011;13500;52.514;13.462;2024-03-02T01:13:50;56.23;;;39.50;;
8654;SDS011;13500;52.514;13.462;2024-03-02T01:16:19;56.70;;;38.47;;
8654;SDS011;13500;52.514;13.462;2024-03-02T01:18:47;55.60;;;38.90;;
8654;SDS011;13500;52.514;13.462;2024-03-02T01:21:16;55.40;;;40.50;;
8654;SDS011;13500;52.514;13.462;2024-03-02T01:23:45;53.83;;;40.87;;
8654;SDS011;13500;52.514;13.462;2024-03-02T01:26:13;58.20;;;40.80;;
8654;SDS011;13500;52.514;13.462;2024-03-02T01:28:42;53.40;;;39.93;;
8654;SDS011;13500;52.514;13.462;2024-03-02T01:31:11;56.90;;;39.93;;
8654;SDS011;13500;52.514;13.462;2024-03-02T01:33:39;52.80;;;41.13;;
8654;SDS011;13500;52.514;13.462;2024-03-02T01:36:07;56.17;;;39.20;;
8654;SDS011;13500;52.514;13.462;2024-03-02T01:38:36;56.40;;;40.23;;
8654;SDS011;13500;52.514;13.462;2024-03-02T01:41:04;52.47;;;40.23;;
8654;SDS011;13500;52.514;13.462;2024-03-02T01:43:32;56.10;;;41.17;;
8654;SDS011;13500;52.514;13.462;2024-03-02T01:46:04;53.67;;;40.93;;
8654;SDS011;13500;52.514;13.462;2024-03-02T01:48:32;53.00;;;40.50;;
8654;SDS011;13500;52.514;13.462;2024-03-02T01:51:00;55.67;;;42.23;;
8654;SDS011;13500;52.514;13.462;2024-03-02T01:53:29;59.87;;;42.47;;
8654;SDS011;13500;52.514;13.462;2024-03-02T01:55:57;59.53;;;42.77;;
8654;SDS011;13500;52.514;13.462;2024-03-02T01:58:25;58.63;;;43.17;;
8654;SDS011;13500;52.514;13.462;2024-03-02T02:00:53;55.73;;;41.97;;
8654;SDS011;13500;52.514;13.462;2024-03-02T02:03:23;55.07;;;40.40;;
8654;SDS011;13500;52.514;13.462;2024-03-02T02:05:51;57.83;;;42.80;;
8654;SDS011;13500;52.514;13.462;2024-03-02T02:08:19;57.17;;;42.17;;
8654;SDS011;13500;52.514;13.462;2024-03-02T02:10:47;58.73;;;44.00;;
8654;SDS011;13500;52.514;13.462;2024-03-02T02:13:16;55.43;;;42.13;;
8654;SDS011;13500;52.514;13.462;2024-03-02T02:15:44;57.83;;;42.53;;
8654;SDS011;13500;52.514;13.462;2024-03-02T02:18:13;58.57;;;43.20;;
8654;SDS011;13500;52.514;13.462;2024-03-02T02:20:42;61.50;;;43.07;;
8654;SDS011;13500;52.514;13.462;2024-03-02T02:23:12;63.77;;;44.60;;
8654;SDS011;13500;52.514;13.462;2024-03-02T02:25:40;59.27;;;43.37;;
8654;SDS011;13500;52.514;13.462;2024-03-02T02:28:09;59.47;;;43.80;;
8654;SDS011;13500;52.514;13.462;2024-03-02T02:30:37;61.80;;;43.60;;
8654;SDS011;13500;52.514;13.462;2024-03-02T02:33:05;60.27;;;44.97;;
8654;SDS011;13500;52.514;13.462;2024-03-02T02:35:34;69.07;;;44.73;;
8654;SDS011;13500;52.514;13.462;2024-03-02T02:38:02;60.17;;;43.40;;
8654;SDS011;13500;52.514;13.462;2024-03-02T02:40:32;59.27;;;44.03;;
8654;SDS011;13500;52.514;13.462;2024-03-02T02:43:00;61.43;;;44.77;;
8654;SDS011;13500;52.514;13.462;2024-03-02T02:45:28;61.43;;;42.90;;
8654;SDS011;13500;52.514;13.462;2024-03-02T02:47:57;61.77;;;44.50;;
8654;SDS011;13500;52.514;13.462;2024-03-02T02:50:26;59.60;;;43.17;;
8654;SDS011;13500;52.514;13.462;2024-03-02T02:52:54;66.17;;;45.27;;
8654;SDS011;13500;52.514;13.462;2024-03-02T02:55:22;62.63;;;43.33;;
8654;SDS011;13500;52.514;13.462;2024-03-02T02:57:51;66.40;;;45.70;;
8654;SDS011;13500;52.514;13.462;2024-03-02T03:00:20;57.30;;;42.80;;
8654;SDS011;13500;52.514;13.462;2024-03-02T03:02:49;64.23;;;45.20;;
8654;SDS011;13500;52.514;13.462;2024-03-02T03:05:18;63.17;;;43.23;;
8654;SDS011;13500;52.514;13.462;2024-03-02T03:07:47;64.70;;;45.73;;
8654;SDS011;13500;52.514;13.462;2024-03-02T03:10:17;64.43;;;44.47;;
8654;SDS011;13500;52.514;13.462;2024-03-02T03:12:48;69.87;;;44.40;;
8654;SDS011;13500;52.514;13.462;2024-03-02T03:15:18;66.57;;;45.37;;
8654;SDS011;13500;52.514;13.462;2024-03-02T03:17:46;60.70;;;43.87;;
8654;SDS011;13500;52.514;13.462;2024-03-02T03:20:15;57.47;;;42.63;;
8654;SDS011;13500;52.514;13.462;2024-03-02T03:22:43;61.43;;;43.70;;
8654;SDS011;13500;52.514;13.462;2024-03-02T03:25:11;64.07;;;44.70;;
8654;SDS011;13500;52.514;13.462;2024-03-02T03:27:39;62.53;;;44.07;;
8654;SDS011;13500;52.514;13.462;2024-03-02T03:30:09;59.50;;;43.30;;
8654;SDS011;13500;52.514;13.462;2024-03-02T03:32:39;58.37;;;42.03;;
8654;SDS011;13500;52.514;13.462;2024-03-02T03:35:07;58.57;;;42.43;;
8654;SDS011;13500;52.514;13.462;2024-03-02T03:37:36;58.53;;;43.13;;
8654;SDS011;13500;52.514;13.462;2024-03-02T03:40:05;56.60;;;42.23;;
8654;SDS011;13500;52.514;13.462;2024-03-02T03:42:37;61.63;;;42.17;;
8654;SDS011;13500;52.514;13.462;2024-03-02T03:45:06;57.27;;;41.70;;
8654;SDS011;13500;52.514;13.462;2024-03-02T03:47:35;54.67;;;40.43;;
8654;SDS011;13500;52.514;13.462;2024-03-02T03:50:05;55.40;;;40.77;;
8654;SDS011;13500;52.514;13.462;2024-03-02T03:52:34;55.50;;;41.03;;
8654;SDS011;13500;52.514;13.462;2024-03-02T03:55:03;55.80;;;40.20;;
8654;SDS011;13500;52.514;13.462;2024-03-02T03:57:33;57.63;;;41.23;;
8654;SDS011;13500;52.514;13.462;2024-03-02T04:00:02;55.63;;;39.67;;
8654;SDS011;13500;52.514;13.462;2024-03-02T04:02:37;52.87;;;40.50;;
8654;SDS011;13500;52.514;13.462;2024-03-02T04:05:07;63.47;;;41.73;;
8654;SDS011;13500;52.514;13.462;2024-03-02T04:07:38;58.33;;;40.10;;
8654;SDS011;13500;52.514;13.462;2024-03-02T04:10:08;59.43;;;40.63;;
8654;SDS011;13500;52.514;13.462;2024-03-02T04:12:36;56.53;;;40.47;;
8654;SDS011;13500;52.514;13.462;2024-03-02T04:15:05;54.47;;;38.73;;
8654;SDS011;13500;52.514;13.462;2024-03-02T04:17:34;57.60;;;39.87;;
8654;SDS011;13500;52.514;13.462;2024-03-02T04:20:03;56.07;;;39.83;;
8654;SDS011;13500;52.514;13.462;2024-03-02T04:22:34;50.00;;;39.30;;
8654;SDS011;13500;52.514;13.462;2024-03-02T04:25:03;57.43;;;39.57;;
8654;SDS011;13500;52.514;13.462;2024-03-02T04:27:34;53.80;;;38.90;;
8654;SDS011;13500;52.514;13.462;2024-03-02T04:30:03;54.10;;;39.60;;
8654;SDS011;13500;52.514;13.462;2024-03-02T04:32:33;53.83;;;38.73;;
8654;SDS011;13500;52.514;13.462;2024-03-02T04:35:03;49.93;;;37.77;;
8654;SDS011;13500;52.514;13.462;2024-03-02T04:37:35;51.73;;;38.40;;
8654;SDS011;13500;52.514;13.462;2024-03-02T04:40:04;56.37;;;37.83;;
8654;SDS011;13500;52.514;13.462;2024-03-02T04:42:34;52.20;;;37.47;;
8654;SDS011;13500;52.514;13.462;2024-03-02T04:45:03;49.63;;;37.80;;
8654;SDS011;13500;52.514;13.462;2024-03-02T04:47:32;49.60;;;37.27;;
8654;SDS011;13500;52.514;13.462;2024-03-02T04:50:00;52.40;;;38.83;;
8654;SDS011;13500;52.514;13.462;2024-03-02T04:52:28;48.20;;;37.20;;
8654;SDS011;13500;52.514;13.462;2024-03-02T04:54:58;52.10;;;39.07;;
8654;SDS011;13500;52.514;13.462;2024-03-02T04:57:45;49.23;;;37.47;;
8654;SDS011;13500;52.514;13.462;2024-03-02T05:00:14;52.20;;;38.80;;
8654;SDS011;13500;52.514;13.462;2024-03-02T05:02:43;50.60;;;38.50;;
8654;SDS011;13500;52.514;13.462;2024-03-02T05:05:11;50.10;;;37.70;;
8654;SDS011;13500;52.514;13.462;2024-03-02T05:07:39;48.03;;;37.27;;
8654;SDS011;13500;52.514;13.462;2024-03-02T05:10:10;50.03;;;37.37;;
8654;SDS011;13500;52.514;13.462;2024-03-02T05:12:39;48.43;;;37.50;;
8654;SDS011;13500;52.514;13.462;2024-03-02T05:15:24;51.30;;;37.00;;
8654;SDS011;13500;52.514;13.462;2024-03-02T05:17:51;48.77;;;36.70;;
8654;SDS011;13500;52.514;13.462;2024-03-02T05:20:20;50.43;;;37.17;;
8654;SDS011;13500;52.514;13.462;2024-03-02T05:22:48;50.13;;;37.17;;
8654;SDS011;13500;52.514;13.462;2024-03-02T05:25:17;48.10;;;36.37;;
8654;SDS011;13500;52.514;13.462;2024-03-02T05:27:49;49.97;;;37.83;;
8654;SDS011;13500;52.514;13.462;2024-03-02T05:30:17;49.43;;;36.50;;
8654;SDS011;13500;52.514;13.462;2024-03-02T05:32:45;53.83;;;38.27;;
8654;SDS011;13500;52.514;13.462;2024-03-02T05:35:13;52.93;;;39.33;;
8654;SDS011;13500;52.514;13.462;2024-03-02T05:37:41;52.40;;;37.53;;
8654;SDS011;13500;52.514;13.462;2024-03-02T05:40:10;51.80;;;38.37;;
8654;SDS011;13500;52.514;13.462;2024-03-02T05:42:41;47.37;;;37.93;;
8654;SDS011;13500;52.514;13.462;2024-03-02T05:45:09;53.70;;;37.57;;
8654;SDS011;13500;52.514;13.462;2024-03-02T05:47:37;54.00;;;41.13;;
8654;SDS011;13500;52.514;13.462;2024-03-02T05:50:06;54.37;;;37.97;;
8654;SDS011;13500;52.514;13.462;2024-03-02T05:52:34;51.30;;;39.50;;
8654;SDS011;13500;52.514;13.462;2024-03-02T05:55:03;52.53;;;38.00;;
8654;SDS011;13500;52.514;13.462;2024-03-02T05:57:31;51.57;;;38.90;;
8654;SDS011;13500;52.514;13.462;2024-03-02T06:00:16;55.13;;;39.43;;
8654;SDS011;13500;52.514;13.462;2024-03-02T06:02:45;52.33;;;38.03;;
8654;SDS011;13500;52.514;13.462;2024-03-02T06:05:13;53.43;;;40.00;;
8654;SDS011;13500;52.514;13.462;2024-03-02T06:07:42;54.13;;;40.23;;
8654;SDS011;13500;52.514;13.462;2024-03-02T06:10:11;57.73;;;39.63;;
8654;SDS011;13500;52.514;13.462;2024-03-02T06:12:40;56.57;;;40.73;;
8654;SDS011;13500;52.514;13.462;2024-03-02T06:15:09;53.20;;;38.87;;
8654;SDS011;13500;52.514;13.462;2024-03-02T06:17:38;54.07;;;40.50;;
8654;SDS011;13500;52.514;13.462;2024-03-02T06:20:07;56.00;;;40.63;;
8654;SDS011;13500;52.514;13.462;2024-03-02T06:22:36;51.47;;;39.33;;
8654;SDS011;13500;52.514;13.462;2024-03-02T06:25:04;55.77;;;40.17;;
8654;SDS011;13500;52.514;13.462;2024-03-02T06:27:33;50.03;;;39.27;;
8654;SDS011;13500;52.514;13.462;2024-03-02T06:30:01;50.63;;;39.77;;
8654;SDS011;13500;52.514;13.462;2024-03-02T06:32:31;57.03;;;40.57;;
8654;SDS011;13500;52.514;13.462;2024-03-02T06:35:01;59.43;;;40.57;;
8654;SDS011;13500;52.514;13.462;2024-03-02T06:37:30;55.57;;;39.43;;
8654;SDS011;13500;52.514;13.462;2024-03-02T06:39:59;52.60;;;38.93;;
8654;SDS011;13500;52.514;13.462;2024-03-02T06:42:27;57.83;;;43.20;;
8654;SDS011;13500;52.514;13.462;2024-03-02T06:45:00;56.93;;;40.03;;
8654;SDS011;13500;52.514;13.462;2024-03-02T06:47:28;53.00;;;39.20;;
8654;SDS011;13500;52.514;13.462;2024-03-02T06:49:56;52.60;;;39.13;;
8654;SDS011;13500;52.514;13.462;2024-03-02T06:52:26;54.03;;;40.90;;
8654;SDS011;13500;52.514;13.462;2024-03-02T06:54:54;52.40;;;38.40;;
8654;SDS011;13500;52.514;13.462;2024-03-02T06:57:23;52.23;;;37.47;;
8654;SDS011;13500;52.514;13.462;2024-03-02T06:59:51;50.47;;;37.83;;
8654;SDS011;13500;52.514;13.462;2024-03-02T07:02:21;47.43;;;36.80;;
8654;SDS011;13500;52.514;13.462;2024-03-02T07:04:50;54.43;;;39.20;;
8654;SDS011;13500;52.514;13.462;2024-03-02T07:07:18;48.10;;;37.23;;
8654;SDS011;13500;52.514;13.462;2024-03-02T07:09:48;52.83;;;38.70;;
8654;SDS011;13500;52.514;13.462;2024-03-02T07:12:17;55.93;;;39.57;;
8654;SDS011;13500;52.514;13.462;2024-03-02T07:14:45;55.73;;;39.73;;
8654;SDS011;13500;52.514;13.462;2024-03-02T07:17:27;58.80;;;40.23;;
8654;SDS011;13500;52.514;13.462;2024-03-02T07:19:56;57.83;;;39.53;;
8654;SDS011;13500;52.514;13.462;2024-03-02T07:22:24;53.33;;;38.93;;
8654;SDS011;13500;52.514;13.462;2024-03-02T07:24:54;56.33;;;38.97;;
8654;SDS011;13500;52.514;13.462;2024-03-02T07:27:22;59.30;;;39.73;;
8654;SDS011;13500;52.514;13.462;2024-03-02T07:29:50;54.70;;;40.87;;
8654;SDS011;13500;52.514;13.462;2024-03-02T07:32:18;55.93;;;40.37;;
8654;SDS011;13500;52.514;13.462;2024-03-02T07:34:47;56.90;;;39.63;;
8654;SDS011;13500;52.514;13.462;2024-03-02T07:37:15;53.70;;;38.00;;
8654;SDS011;13500;52.514;13.462;2024-03-02T07:39:43;55.27;;;39.07;;
8654;SDS011;13500;52.514;13.462;2024-03-02T07:42:14;52.33;;;38.67;;
8654;SDS011;13500;52.514;13.462;2024-03-02T07:44:43;49.50;;;38.20;;
8654;SDS011;13500;52.514;13.462;2024-03-02T07:47:13;54.47;;;39.13;;
8654;SDS011;13500;52.514;13.462;2024-03-02T07:49:42;52.23;;;38.40;;
8654;SDS011;13500;52.514;13.462;2024-03-02T07:52:10;53.43;;;38.73;;
8654;SDS011;13500;52.514;13.462;2024-03-02T07:54:38;54.37;;;39.57;;
8654;SDS011;13500;52.514;13.462;2024-03-02T07:57:07;59.53;;;41.37;;
8654;SDS011;13500;52.514;13.462;2024-03-02T07:59:36;61.13;;;41.53;;
8654;SDS011;13500;52.514;13.462;2024-03-02T08:02:05;60.53;;;41.53;;
8654;SDS011;13500;52.514;13.462;2024-03-02T08:04:33;57.33;;;41.77;;
8654;SDS011;13500;52.514;13.462;2024-03-02T08:07:02;57.53;;;40.77;;
8654;SDS011;13500;52.514;13.462;2024-03-02T08:09:31;59.97;;;43.13;;
8654;SDS011;13500;52.514;13.462;2024-03-02T08:11:59;51.10;;;38.70;;
8654;SDS011;13500;52.514;13.462;2024-03-02T08:14:27;52.10;;;39.50;;
8654;SDS011;13500;52.514;13.462;2024-03-02T08:16:57;51.20;;;38.10;;
8654;SDS011;13500;52.514;13.462;2024-03-02T08:19:28;49.83;;;36.83;;
8654;SDS011;13500;52.514;13.462;2024-03-02T08:21:57;54.63;;;40.20;;
8654;SDS011;13500;52.514;13.462;2024-03-02T08:24:26;50.87;;;38.07;;
8654;SDS011;13500;52.514;13.462;2024-03-02T08:26:54;54.07;;;37.67;;
8654;SDS011;13500;52.514;13.462;2024-03-02T08:29:22;48.87;;;38.60;;
8654;SDS011;13500;52.514;13.462;2024-03-02T08:31:51;51.50;;;37.93;;
8654;SDS011;13500;52.514;13.462;2024-03-02T08:34:20;50.23;;;35.60;;
8654;SDS011;13500;52.514;13.462;2024-03-02T08:36:48;46.50;;;33.90;;
8654;SDS011;13500;52.514;13.462;2024-03-02T08:39:17;48.20;;;34.77;;
8654;SDS011;13500;52.514;13.462;2024-03-02T08:41:49;47.40;;;34.07;;
8654;SDS011;13500;52.514;13.462;2024-03-02T08:44:18;44.97;;;33.97;;
8654;SDS011;13500;52.514;13.462;2024-03-02T08:46:46;44.13;;;34.37;;
8654;SDS011;13500;52.514;13.462;2024-03-02T08:49:14;45.80;;;33.70;;
8654;SDS011;13500;52.514;13.462;2024-03-02T08:51:44;45.30;;;34.47;;
8654;SDS011;13500;52.514;13.462;2024-03-02T08:54:21;49.13;;;35.53;;
8654;SDS011;13500;52.514;13.462;2024-03-02T08:56:50;47.30;;;34.50;;
8654;SDS011;13500;52.514;13.462;2024-03-02T08:59:18;47.80;;;35.10;;
8654;SDS011;13500;52.514;13.462;2024-03-02T09:01:46;48.00;;;34.53;;
8654;SDS011;13500;52.514;13.462;2024-03-02T09:04:15;49.53;;;36.07;;
8654;SDS011;13500;52.514;13.462;2024-03-02T09:06:44;50.27;;;36.50;;
8654;SDS011;13500;52.514;13.462;2024-03-02T09:09:13;48.90;;;36.17;;
8654;SDS011;13500;52.514;13.462;2024-03-02T09:11:41;48.37;;;36.87;;
8654;SDS011;13500;52.514;13.462;2024-03-02T09:14:09;48.40;;;35.87;;
8654;SDS011;13500;52.514;13.462;2024-03-02T09:16:42;50.50;;;35.93;;
8654;SDS011;13500;52.514;13.462;2024-03-02T09:19:10;46.60;;;35.43;;
8654;SDS011;13500;52.514;13.462;2024-03-02T09:21:38;44.57;;;34.27;;
8654;SDS011;13500;52.514;13.462;2024-03-02T09:24:08;52.50;;;35.77;;
8654;SDS011;13500;52.514;13.462;2024-03-02T09:26:36;45.10;;;34.40;;
8654;SDS011;13500;52.514;13.462;2024-03-02T09:29:05;47.70;;;34.90;;
8654;SDS011;13500;52.514;13.462;2024-03-02T09:31:38;43.23;;;33.40;;
8654;SDS011;13500;52.514;13.462;2024-03-02T09:34:07;40.97;;;32.30;;
8654;SDS011;13500;52.514;13.462;2024-03-02T09:36:36;40.83;;;32.50;;
8654;SDS011;13500;52.514;13.462;2024-03-02T09:39:04;42.23;;;30.93;;
8654;SDS011;13500;52.514;13.462;2024-03-02T09:41:34;39.00;;;31.43;;
8654;SDS011;13500;52.514;13.462;2024-03-02T09:44:02;39.87;;;30.63;;
8654;SDS011;13500;52.514;13.462;2024-03-02T09:46:32;38.23;;;31.20;;
8654;SDS011;13500;52.514;13.462;2024-03-02T09:49:03;39.57;;;31.17;;
8654;SDS011;13500;52.514;13.462;2024-03-02T09:51:31;40.50;;;31.80;;
8654;SDS011;13500;52.514;13.462;2024-03-02T09:54:00;37.13;;;30.10;;
8654;SDS011;13500;52.514;13.462;2024-03-02T09:56:45;37.37;;;29.20;;
8654;SDS011;13500;52.514;13.462;2024-03-02T09:59:13;36.43;;;28.47;;
8654;SDS011;13500;52.514;13.462;2024-03-02T10:01:55;34.27;;;27.97;;
8654;SDS011;13500;52.514;13.462;2024-03-02T10:04:25;35.20;;;28.43;;
8654;SDS011;13500;52.514;13.462;2024-03-02T10:07:08;35.00;;;28.80;;
8654;SDS011;13500;52.514;13.462;2024-03-02T10:09:38;36.20;;;28.83;;
8654;SDS011;13500;52.514;13.462;2024-03-02T10:12:09;34.53;;;27.67;;
8654;SDS011;13500;52.514;13.462;2024-03-02T10:14:39;41.07;;;30.97;;
8654;SDS011;13500;52.514;13.462;2024-03-02T10:17:08;35.03;;;27.50;;
8654;SDS011;13500;52.514;13.462;2024-03-02T10:19:36;30.93;;;25.57;;
8654;SDS011;13500;52.514;13.462;2024-03-02T10:22:06;33.33;;;27.33;;
8654;SDS011;13500;52.514;13.462;2024-03-02T10:24:36;30.90;;;24.77;;
8654;SDS011;13500;52.514;13.462;2024-03-02T10:27:06;30.90;;;24.70;;
8654;SDS011;13500;52.514;13.462;2024-03-02T10:29:37;32.43;;;26.30;;
8654;SDS011;13500;52.514;13.462;2024-03-02T10:32:08;31.07;;;24.43;;
8654;SDS011;13500;52.514;13.462;2024-03-02T10:34:40;30.77;;;24.17;;
8654;SDS011;13500;52.514;13.462;2024-03-02T10:37:10;28.40;;;22.50;;
8654;SDS011;13500;52.514;13.462;2024-03-02T10:39:40;26.90;;;22.33;;
8654;SDS011;13500;52.514;13.462;2024-03-02T10:42:10;24.13;;;20.77;;
8654;SDS011;13500;52.514;13.462;2024-03-02T10:44:40;23.87;;;21.20;;
8654;SDS011;13500;52.514;13.462;2024-03-02T10:47:09;26.63;;;21.73;;
8654;SDS011;13500;52.514;13.462;2024-03-02T10:49:40;23.73;;;20.80;;
8654;SDS011;13500;52.514;13.462;2024-03-02T10:52:09;24.23;;;19.90;;
8654;SDS011;13500;52.514;13.462;2024-03-02T10:54:38;22.83;;;19.03;;
8654;SDS011;13500;52.514;13.462;2024-03-02T10:57:07;24.20;;;19.80;;
8654;SDS011;13500;52.514;13.462;2024-03-02T10:59:41;21.97;;;19.03;;
8654;SDS011;13500;52.514;13.462;2024-03-02T11:02:16;22.30;;;19.20;;
8654;SDS011;13500;52.514;13.462;2024-03-02T11:04:45;22.93;;;19.67;;
8654;SDS011;13500;52.514;13.462;2024-03-02T11:07:14;24.33;;;19.20;;
8654;SDS011;13500;52.514;13.462;2024-03-02T11:09:45;23.73;;;18.53;;
8654;SDS011;13500;52.514;13.462;2024-03-02T11:12:19;26.40;;;19.23;;
8654;SDS011;13500;52.514;13.462;2024-03-02T11:14:52;24.43;;;18.43;;
8654;SDS011;13500;52.514;13.462;2024-03-02T11:17:20;31.60;;;21.70;;
8654;SDS011;13500;52.514;13.462;2024-03-02T11:19:49;25.77;;;19.33;;
8654;SDS011;13500;52.514;13.462;2024-03-02T11:22:17;25.37;;;19.00;;
8654;SDS011;13500;52.514;13.462;2024-03-02T11:24:50;28.27;;;21.17;;
8654;SDS011;13500;52.514;13.462;2024-03-02T11:33:24;22.17;;;18.50;;
8654;SDS011;13500;52.514;13.462;2024-03-02T11:35:57;23.53;;;19.50;;
8654;SDS011;13500;52.514;13.462;2024-03-02T11:38:30;22.00;;;18.63;;
8654;SDS011;13500;52.514;13.462;2024-03-02T11:41:00;22.00;;;18.80;;
8654;SDS011;13500;52.514;13.462;2024-03-02T11:43:29;21.67;;;18.10;;
8654;SDS011;13500;52.514;13.462;2024-03-02T11:46:00;23.80;;;19.43;;
8654;SDS011;13500;52.514;13.462;2024-03-02T11:48:31;23.87;;;18.60;;
8654;SDS011;13500;52.514;13.462;2024-03-02T11:51:00;21.30;;;18.10;;
8654;SDS011;13500;52.514;13.462;2024-03-02T11:53:28;22.10;;;18.60;;
8654;SDS011;13500;52.514;13.462;2024-03-02T11:56:01;21.60;;;19.13;;
8654;SDS011;13500;52.514;13.462;2024-03-02T11:58:30;25.40;;;21.73;;
8654;SDS011;13500;52.514;13.462;2024-03-02T12:00:59;22.53;;;18.83;;
8654;SDS011;13500;52.514;13.462;2024-03-02T12:03:29;22.00;;;19.33;;
8654;SDS011;13500;52.514;13.462;2024-03-02T12:05:57;27.50;;;20.67;;
8654;SDS011;13500;52.514;13.462;2024-03-02T12:08:27;20.43;;;17.07;;
8654;SDS011;13500;52.514;13.462;2024-03-02T12:10:56;21.67;;;18.27;;
8654;SDS011;13500;52.514;13.462;2024-03-02T12:13:25;22.43;;;17.23;;
8654;SDS011;13500;52.514;13.462;2024-03-02T12:15:54;20.33;;;17.50;;
8654;SDS011;13500;52.514;13.462;2024-03-02T12:18:25;21.03;;;17.80;;
8654;SDS011;13500;52.514;13.462;2024-03-02T12:20:53;19.70;;;16.37;;
8654;SDS011;13500;52.514;13.462;2024-03-02T12:23:24;18.03;;;16.10;;
8654;SDS011;13500;52.514;13.462;2024-03-02T12:25:53;17.27;;;15.47;;
8654;SDS011;13500;52.514;13.462;2024-03-02T12:28:22;19.40;;;15.77;;
8654;SDS011;13500;52.514;13.462;2024-03-02T12:30:50;18.47;;;15.73;;
8654;SDS011;13500;52.514;13.462;2024-03-02T12:33:19;20.33;;;16.00;;
8654;SDS011;13500;52.514;13.462;2024-03-02T12:35:50;21.20;;;17.63;;
8654;SDS011;13500;52.514;13.462;2024-03-02T12:38:18;20.57;;;17.67;;
8654;SDS011;13500;52.514;13.462;2024-03-02T12:40:47;19.10;;;17.03;;
8654;SDS011;13500;52.514;13.462;2024-03-02T12:43:16;18.97;;;16.07;;
8654;SDS011;13500;52.514;13.462;2024-03-02T12:45:45;19.37;;;16.93;;
8654;SDS011;13500;52.514;13.462;2024-03-02T12:48:13;18.23;;;15.97;;
8654;SDS011;13500;52.514;13.462;2024-03-02T12:50:42;15.73;;;14.03;;
8654;SDS011;13500;52.514;13.462;2024-03-02T12:53:15;15.87;;;14.17;;
8654;SDS011;13500;52.514;13.462;2024-03-02T12:55:44;16.10;;;14.40;;
8654;SDS011;13500;52.514;13.462;2024-03-02T12:58:18;16.10;;;14.00;;
8654;SDS011;13500;52.514;13.462;2024-03-02T13:00:48;16.93;;;13.20;;
8654;SDS011;13500;52.514;13.462;2024-03-02T13:03:17;15.13;;;12.77;;
8654;SDS011;13500;52.514;13.462;2024-03-02T13:05:50;14.63;;;13.00;;
8654;SDS011;13500;52.514;13.462;2024-03-02T13:08:21;14.10;;;12.60;;
8654;SDS011;13500;52.514;13.462;2024-03-02T13:10:53;17.50;;;14.93;;
8654;SDS011;13500;52.514;13.462;2024-03-02T13:13:25;17.37;;;14.20;;
8654;SDS011;13500;52.514;13.462;2024-03-02T13:15:54;17.30;;;15.50;;
8654;SDS011;13500;52.514;13.462;2024-03-02T13:18:23;18.87;;;16.97;;
8654;SDS011;13500;52.514;13.462;2024-03-02T13:20:51;18.60;;;16.20;;
8654;SDS011;13500;52.514;13.462;2024-03-02T13:23:21;18.10;;;14.93;;
8654;SDS011;13500;52.514;13.462;2024-03-02T13:25:49;43.33;;;36.43;;
8654;SDS011;13500;52.514;13.462;2024-03-02T13:28:18;19.40;;;16.30;;
8654;SDS011;13500;52.514;13.462;2024-03-02T13:30:46;19.30;;;16.00;;
8654;SDS011;13500;52.514;13.462;2024-03-02T13:33:14;19.67;;;16.03;;
8654;SDS011;13500;52.514;13.462;2024-03-02T13:35:43;19.83;;;16.80;;
8654;SDS011;13500;52.514;13.462;2024-03-02T13:38:11;17.53;;;15.37;;
8654;SDS011;13500;52.514;13.462;2024-03-02T13:40:41;18.47;;;14.33;;
8654;SDS011;13500;52.514;13.462;2024-03-02T13:43:09;18.50;;;15.27;;
8654;SDS011;13500;52.514;13.462;2024-03-02T13:45:38;16.67;;;14.03;;
8654;SDS011;13500;52.514;13.462;2024-03-02T13:48:07;19.37;;;14.70;;
8654;SDS011;13500;52.514;13.462;2024-03-02T13:50:35;14.97;;;12.90;;
8654;SDS011;13500;52.514;13.462;2024-03-02T13:53:03;14.17;;;12.73;;
8654;SDS011;13500;52.514;13.462;2024-03-02T13:55:33;15.40;;;12.90;;
8654;SDS011;13500;52.514;13.462;2024-03-02T13:58:03;13.93;;;12.53;;
8654;SDS011;13500;52.514;13.462;2024-03-02T14:00:31;15.67;;;12.83;;
8654;SDS011;13500;52.514;13.462;2024-03-02T14:03:00;13.87;;;12.30;;
8654;SDS011;13500;52.514;13.462;2024-03-02T14:05:29;11.93;;;10.53;;
8654;SDS011;13500;52.514;13.462;2024-03-02T14:07:58;12.80;;;11.10;;
8654;SDS011;13500;52.514;13.462;2024-03-02T14:10:27;12.47;;;10.70;;
8654;SDS011;13500;52.514;13.462;2024-03-02T14:12:55;13.30;;;12.00;;
8654;SDS011;13500;52.514;13.462;2024-03-02T14:15:25;14.37;;;12.23;;
8654;SDS011;13500;52.514;13.462;2024-03-02T14:17:53;14.37;;;12.47;;
8654;SDS011;13500;52.514;13.462;2024-03-02T14:20:22;13.80;;;11.87;;
8654;SDS011;13500;52.514;13.462;2024-03-02T14:22:50;15.30;;;12.60;;
8654;SDS011;13500;52.514;13.462;2024-03-02T14:25:18;13.17;;;11.83;;
8654;SDS011;13500;52.514;13.462;2024-03-02T14:27:47;13.50;;;12.10;;
8654;SDS011;13500;52.514;13.462;2024-03-02T14:30:37;12.87;;;10.63;;
8654;SDS011;13500;52.514;13.462;2024-03-02T14:33:05;13.87;;;10.93;;
8654;SDS011;13500;52.514;13.462;2024-03-02T14:35:33;14.30;;;10.40;;
8654;SDS011;13500;52.514;13.462;2024-03-02T14:38:02;17.87;;;12.17;;
8654;SDS011;13500;52.514;13.462;2024-03-02T14:40:30;14.90;;;10.90;;